createdAt,value
2018-05-02T00:02:06.526Z,63.00
2018-05-02T00:04:34.749Z,62.10
2018-05-02T00:07:03.118Z,62.00
2018-05-02T00:09:31.275Z,62.40
2018-05-02T00:11:59.418Z,60.60
2018-05-02T00:14:27.560Z,61.60
2018-05-02T00:16:55.905Z,61.10
2018-05-02T00:19:24.059Z,62.70
2018-05-02T00:21:53.280Z,63.00
2018-05-02T00:24:21.441Z,59.70
2018-05-02T00:26:50.908Z,60.70
2018-05-02T00:29:19.063Z,60.30
2018-05-02T00:31:47.291Z,61.20
2018-05-02T00:34:15.472Z,61.30
2018-05-02T00:36:43.622Z,62.50
2018-05-02T00:39:11.774Z,61.80
2018-05-02T00:41:41.203Z,61.80
2018-05-02T00:44:09.358Z,61.30
2018-05-02T00:46:38.292Z,58.40
2018-05-02T00:49:17.659Z,58.40
2018-05-02T00:51:45.942Z,57.40
2018-05-02T00:54:14.094Z,59.70
2018-05-02T00:56:42.254Z,61.10
2018-05-02T00:59:10.543Z,58.50
2018-05-02T01:01:40.021Z,58.20
2018-05-02T01:04:08.220Z,58.60
2018-05-02T01:06:36.385Z,59.80
2018-05-02T01:09:04.536Z,59.90
2018-05-02T01:11:32.692Z,60.50
2018-05-02T01:14:00.963Z,60.00
2018-05-02T01:16:29.876Z,59.20
2018-05-02T01:18:58.058Z,59.20
2018-05-02T01:21:26.343Z,59.70
2018-05-02T01:23:54.611Z,58.40
2018-05-02T01:26:22.757Z,56.70
2018-05-02T01:28:54.126Z,55.90
2018-05-02T01:31:24.398Z,56.10
2018-05-02T01:33:52.539Z,57.10
2018-05-02T01:36:21.652Z,58.70
2018-05-02T01:38:49.806Z,56.90
2018-05-02T01:41:17.950Z,57.70
2018-05-02T01:43:46.105Z,56.20
2018-05-02T01:46:14.299Z,56.50
2018-05-02T01:48:55.113Z,56.00
2018-05-02T01:51:23.976Z,55.50
2018-05-02T01:53:52.125Z,55.50
2018-05-02T01:56:21.043Z,54.80
2018-05-02T01:58:49.188Z,54.80
2018-05-02T02:01:18.104Z,54.50
2018-05-02T02:03:46.252Z,54.60
2018-05-02T02:06:15.188Z,57.60
2018-05-02T02:08:43.433Z,57.50
2018-05-02T02:11:12.427Z,55.40
2018-05-02T02:13:41.353Z,54.70
2018-05-02T02:16:09.525Z,54.20
2018-05-02T02:18:37.732Z,54.40
2018-05-02T02:21:05.951Z,56.00
2018-05-02T02:23:34.131Z,57.50
2018-05-02T02:26:02.265Z,57.70
2018-05-02T02:28:31.189Z,55.30
2018-05-02T02:31:00.276Z,55.40
2018-05-02T02:33:28.452Z,56.50
2018-05-02T02:35:56.601Z,57.60
2018-05-02T02:38:25.510Z,57.70
2018-05-02T02:40:53.779Z,57.70
2018-05-02T02:43:22.698Z,58.30
2018-05-02T02:45:50.884Z,58.30
2018-05-02T02:48:19.049Z,56.40
2018-05-02T02:50:47.292Z,56.20
2018-05-02T02:53:16.215Z,56.60
2018-05-02T02:55:44.371Z,56.50
2018-05-02T02:58:12.518Z,57.20
2018-05-02T03:00:41.639Z,59.00
2018-05-02T03:03:09.840Z,58.10
2018-05-02T03:05:37.988Z,57.80
2018-05-02T03:08:06.895Z,60.00
2018-05-02T03:10:35.135Z,60.00
2018-05-02T03:13:04.054Z,63.20
2018-05-02T03:15:32.215Z,63.20
2018-05-02T03:18:01.186Z,63.20
2018-05-02T03:20:29.430Z,61.90
2018-05-02T03:22:57.580Z,61.20
2018-05-02T03:25:25.751Z,60.70
2018-05-02T03:27:53.903Z,60.60
2018-05-02T03:30:22.845Z,56.10
2018-05-02T03:32:51.109Z,55.40
2018-05-02T03:35:19.992Z,55.90
2018-05-02T03:37:48.174Z,56.30
2018-05-02T03:40:16.333Z,57.10
2018-05-02T03:42:44.492Z,60.60
2018-05-02T03:45:12.652Z,60.10
2018-05-02T03:47:41.578Z,59.20
2018-05-02T03:50:09.849Z,59.20
2018-05-02T03:52:38.148Z,57.20
2018-05-02T03:55:06.361Z,56.50
2018-05-02T03:57:34.534Z,57.60
2018-05-02T04:00:14.592Z,57.00
2018-05-02T04:02:54.525Z,55.70
2018-05-02T04:05:34.342Z,53.30
2018-05-02T04:08:02.495Z,51.50
2018-05-02T04:10:30.666Z,50.70
2018-05-02T04:12:58.835Z,50.90
2018-05-02T04:15:26.989Z,51.60
2018-05-02T04:17:56.001Z,52.10
2018-05-02T04:20:26.522Z,52.00
2018-05-02T04:22:55.485Z,51.30
2018-05-02T04:25:23.652Z,51.30
2018-05-02T04:27:51.875Z,51.50
2018-05-02T04:30:20.156Z,52.00
2018-05-02T04:32:48.295Z,51.30
2018-05-02T04:35:17.246Z,49.30
2018-05-02T04:37:45.631Z,49.40
2018-05-02T04:40:13.905Z,50.70
2018-05-02T04:42:43.084Z,51.00
2018-05-02T04:45:11.247Z,51.00
2018-05-02T04:47:39.398Z,52.40
2018-05-02T04:50:08.402Z,56.60
2018-05-02T04:52:37.333Z,56.50
2018-05-02T04:55:05.474Z,56.40
2018-05-02T04:57:33.624Z,54.20
2018-05-02T05:00:02.549Z,55.60
2018-05-02T05:02:30.715Z,55.60
2018-05-02T05:04:58.883Z,55.50
2018-05-02T05:07:27.059Z,54.20
2018-05-02T05:09:56.048Z,52.80
2018-05-02T05:12:24.970Z,53.40
2018-05-02T05:14:53.127Z,53.40
2018-05-02T05:17:21.284Z,49.30
2018-05-02T05:19:50.203Z,45.90
2018-05-02T05:22:18.344Z,45.90
2018-05-02T05:24:47.257Z,41.90
2018-05-02T05:27:15.424Z,41.90
2018-05-02T05:29:43.708Z,43.00
2018-05-02T05:32:12.475Z,42.20
2018-05-02T05:34:41.411Z,41.00
2018-05-02T05:37:09.592Z,41.10
2018-05-02T05:39:37.761Z,42.30
2018-05-02T05:42:06.693Z,40.90
2018-05-02T05:44:35.433Z,39.90
2018-05-02T05:47:03.603Z,38.00
2018-05-02T05:49:31.757Z,37.50
2018-05-02T05:52:00.499Z,37.60
2018-05-02T05:54:28.757Z,36.60
2018-05-02T05:56:57.628Z,37.60
2018-05-02T05:59:25.799Z,36.50
2018-05-02T06:01:54.016Z,37.10
2018-05-02T06:04:22.167Z,36.50
2018-05-02T06:06:50.374Z,35.20
2018-05-02T06:09:18.555Z,36.50
2018-05-02T06:11:47.528Z,35.20
2018-05-02T06:14:15.694Z,35.20
2018-05-02T06:16:43.847Z,35.60
2018-05-02T06:19:12.025Z,35.10
2018-05-02T06:21:40.193Z,36.00
2018-05-02T06:24:08.372Z,35.90
2018-05-02T06:26:36.527Z,34.60
2018-05-02T06:29:05.472Z,34.40
2018-05-02T06:31:33.765Z,34.60
2018-05-02T06:34:01.849Z,34.40
2018-05-02T06:36:30.790Z,35.20
2018-05-02T06:38:58.947Z,35.20
2018-05-02T06:41:27.198Z,35.80
2018-05-02T06:43:55.425Z,34.80
2018-05-02T06:46:27.732Z,32.80
2018-05-02T06:48:56.984Z,32.30
2018-05-02T06:51:26.025Z,32.90
2018-05-02T06:53:54.956Z,32.10
2018-05-02T06:56:23.110Z,32.10
2018-05-02T06:58:51.292Z,32.00
2018-05-02T07:01:19.546Z,32.80
2018-05-02T07:03:48.473Z,32.50
2018-05-02T07:06:16.634Z,32.50
2018-05-02T07:08:44.787Z,33.30
2018-05-02T07:11:13.700Z,33.80
2018-05-02T07:13:41.934Z,33.80
2018-05-02T07:16:10.086Z,33.50
2018-05-02T07:18:38.234Z,32.90
2018-05-02T07:21:06.400Z,32.50
2018-05-02T07:23:34.556Z,30.00
2018-05-02T07:26:03.497Z,31.90
2018-05-02T07:28:31.660Z,32.00
2018-05-02T07:31:00.984Z,30.10
2018-05-02T07:33:29.238Z,32.40
2018-05-02T07:35:57.382Z,32.10
2018-05-02T07:38:25.984Z,30.70
2018-05-02T07:40:54.286Z,31.10
2018-05-02T07:43:22.438Z,31.40
2018-05-02T07:45:50.633Z,30.30
2018-05-02T07:48:18.853Z,30.90
2018-05-02T07:50:47.837Z,30.20
2018-05-02T07:53:16.791Z,29.70
2018-05-02T07:55:44.949Z,29.70
2018-05-02T07:58:13.124Z,30.00
2018-05-02T08:00:41.272Z,29.00
2018-05-02T08:03:09.440Z,28.80
2018-05-02T08:05:37.623Z,28.40
2018-05-02T08:08:05.806Z,28.00
2018-05-02T08:10:33.960Z,27.90
2018-05-02T08:13:02.175Z,27.50
2018-05-02T08:15:30.320Z,26.50
2018-05-02T08:17:58.532Z,26.60
2018-05-02T08:20:26.693Z,25.10
2018-05-02T08:22:54.847Z,25.20
2018-05-02T08:25:23.011Z,24.80
2018-05-02T08:27:51.199Z,25.20
2018-05-02T08:30:19.348Z,25.10
2018-05-02T08:32:47.536Z,23.70
2018-05-02T08:35:16.457Z,23.90
2018-05-02T08:37:45.004Z,23.80
2018-05-02T08:40:13.297Z,23.50
2018-05-02T08:42:41.470Z,22.90
2018-05-02T08:45:09.719Z,22.70
2018-05-02T08:47:38.686Z,21.60
2018-05-02T08:50:06.845Z,21.60
2018-05-02T08:52:35.239Z,19.80
2018-05-02T08:55:03.480Z,20.50
2018-05-02T08:57:31.736Z,20.60
2018-05-02T09:00:01.153Z,20.60
2018-05-02T09:02:29.316Z,19.80
2018-05-02T09:04:57.491Z,19.80
2018-05-02T09:07:25.680Z,19.10
2018-05-02T09:09:54.845Z,18.30
2018-05-02T09:12:23.006Z,20.30
2018-05-02T09:14:51.924Z,20.90
2018-05-02T09:17:21.233Z,21.00
2018-05-02T09:19:50.410Z,20.00
2018-05-02T09:22:19.762Z,19.50
2018-05-02T09:24:48.077Z,19.20
2018-05-02T09:27:17.004Z,20.60
2018-05-02T09:29:45.219Z,19.40
2018-05-02T09:32:14.270Z,17.90
2018-05-02T09:34:42.835Z,20.10
2018-05-02T09:37:11.044Z,20.00
2018-05-02T09:39:42.099Z,21.70
2018-05-02T09:42:11.786Z,22.50
2018-05-02T09:44:39.975Z,21.80
2018-05-02T09:47:08.136Z,21.30
2018-05-02T09:49:36.358Z,22.00
2018-05-02T09:52:05.394Z,19.00
2018-05-02T09:54:34.475Z,18.80
2018-05-02T09:57:04.591Z,18.60
2018-05-02T09:59:33.292Z,18.10
2018-05-02T10:02:01.424Z,17.80
2018-05-02T10:04:29.615Z,17.90
2018-05-02T10:06:58.533Z,18.40
2018-05-02T10:09:26.692Z,18.40
2018-05-02T10:11:54.844Z,19.40
2018-05-02T10:14:23.769Z,17.90
2018-05-02T10:16:51.933Z,17.90
2018-05-02T10:19:20.161Z,18.70
2018-05-02T10:21:48.312Z,18.40
2018-05-02T10:24:16.467Z,18.50
2018-05-02T10:26:44.700Z,18.60
2018-05-02T10:29:12.872Z,19.00
2018-05-02T10:31:41.044Z,18.30
2018-05-02T10:34:09.189Z,19.60
2018-05-02T10:36:37.348Z,18.00
2018-05-02T10:39:06.649Z,18.10
2018-05-02T10:41:35.180Z,17.40
2018-05-02T10:44:04.425Z,16.10
2018-05-02T10:46:32.586Z,15.70
2018-05-02T10:49:00.748Z,16.80
2018-05-02T10:51:30.250Z,15.90
2018-05-02T10:53:59.191Z,16.00
2018-05-02T10:56:32.263Z,16.00
2018-05-02T10:59:00.620Z,15.50
2018-05-02T11:01:28.788Z,15.80
2018-05-02T11:03:56.972Z,16.40
2018-05-02T11:06:25.166Z,15.90
2018-05-02T11:08:53.317Z,15.60
2018-05-02T11:11:22.514Z,16.20
2018-05-02T11:13:51.423Z,17.20
2018-05-02T11:16:19.660Z,17.10
2018-05-02T11:18:48.587Z,17.10
2018-05-02T11:21:16.897Z,17.10
2018-05-02T11:23:45.164Z,16.80
2018-05-02T11:26:13.971Z,17.90
2018-05-02T11:28:42.238Z,17.70
2018-05-02T11:31:10.524Z,15.80
2018-05-02T11:33:38.723Z,15.90
2018-05-02T11:36:07.252Z,14.70
2018-05-02T11:38:35.424Z,14.70
2018-05-02T11:41:03.620Z,16.20
2018-05-02T11:43:31.797Z,15.20
2018-05-02T11:45:59.978Z,14.10
2018-05-02T11:48:28.143Z,14.50
2018-05-02T11:50:56.360Z,13.50
2018-05-02T11:53:25.275Z,13.80
2018-05-02T11:55:53.470Z,13.70
2018-05-02T11:58:21.636Z,13.00
2018-05-02T12:00:49.813Z,13.70
2018-05-02T12:03:17.998Z,12.70
2018-05-02T12:05:46.152Z,12.80
2018-05-02T12:08:14.334Z,11.30
2018-05-02T12:10:43.512Z,12.10
2018-05-02T12:13:11.683Z,12.90
2018-05-02T12:15:39.854Z,13.10
2018-05-02T12:18:08.077Z,12.50
2018-05-02T12:20:37.244Z,12.50
2018-05-02T12:23:05.428Z,13.50
2018-05-02T12:25:33.603Z,12.30
2018-05-02T12:28:01.792Z,13.00
2018-05-02T12:30:29.973Z,11.10
2018-05-02T12:32:58.206Z,11.70
2018-05-02T12:35:26.465Z,11.90
2018-05-02T12:37:54.617Z,13.20
2018-05-02T12:40:22.840Z,11.90
2018-05-02T12:42:51.032Z,11.90
2018-05-02T12:45:19.233Z,11.50
2018-05-02T12:47:47.372Z,11.60
2018-05-02T12:50:15.557Z,11.90
2018-05-02T12:52:43.732Z,11.60
2018-05-02T12:55:11.921Z,12.60
2018-05-02T12:57:40.516Z,10.90
2018-05-02T13:00:08.718Z,10.80
2018-05-02T13:02:37.286Z,11.70
2018-05-02T13:05:05.432Z,11.50
2018-05-02T13:07:33.658Z,11.80
2018-05-02T13:10:06.059Z,11.80
2018-05-02T13:12:34.200Z,11.70
2018-05-02T13:15:07.159Z,12.70
2018-05-02T13:17:35.311Z,12.90
2018-05-02T13:20:05.504Z,14.00
2018-05-02T13:22:33.697Z,14.50
2018-05-02T13:25:01.876Z,14.80
2018-05-02T13:27:30.059Z,15.00
2018-05-02T13:29:58.230Z,14.50
2018-05-02T13:32:27.270Z,14.30
2018-05-02T13:34:55.416Z,15.40
2018-05-02T13:37:23.597Z,14.60
2018-05-02T13:39:53.756Z,13.80
2018-05-02T13:42:21.923Z,14.70
2018-05-02T13:44:50.106Z,14.90
2018-05-02T13:47:19.265Z,13.70
2018-05-02T13:49:49.536Z,14.10
2018-05-02T13:52:17.683Z,13.60
2018-05-02T13:54:45.851Z,13.50
2018-05-02T13:57:14.038Z,13.10
2018-05-02T13:59:42.215Z,12.80
2018-05-02T14:02:10.422Z,13.30
2018-05-02T14:04:38.581Z,12.20
2018-05-02T14:07:06.752Z,11.40
2018-05-02T14:09:34.926Z,11.00
2018-05-02T14:12:03.120Z,11.90
2018-05-02T14:14:31.275Z,11.00
2018-05-02T14:16:59.462Z,12.10
2018-05-02T14:19:29.759Z,12.40
2018-05-02T14:21:57.946Z,13.00
2018-05-02T14:24:26.131Z,13.10
2018-05-02T14:26:54.292Z,12.60
2018-05-02T14:29:23.353Z,13.40
2018-05-02T14:31:51.528Z,12.50
2018-05-02T14:34:20.458Z,12.40
2018-05-02T14:36:48.616Z,12.30
2018-05-02T14:39:16.787Z,12.50
2018-05-02T14:41:44.943Z,12.50
2018-05-02T14:44:14.851Z,12.80
2018-05-02T14:46:43.085Z,12.40
2018-05-02T14:49:11.258Z,13.50
2018-05-02T14:51:39.462Z,13.50
2018-05-02T14:54:07.641Z,13.80
2018-05-02T14:56:35.844Z,13.20
2018-05-02T14:59:04.255Z,14.20
2018-05-02T15:01:32.745Z,12.40
2018-05-02T15:04:00.864Z,12.80
2018-05-02T15:06:29.787Z,13.30
2018-05-02T15:08:57.959Z,13.30
2018-05-02T15:11:26.144Z,13.60
2018-05-02T15:13:54.324Z,12.30
2018-05-02T15:16:22.483Z,12.60
2018-05-02T15:18:50.648Z,13.70
2018-05-02T15:21:18.938Z,14.00
2018-05-02T15:23:47.092Z,14.40
2018-05-02T15:26:15.356Z,14.70
2018-05-02T15:28:44.290Z,15.20
2018-05-02T15:31:14.600Z,15.20
2018-05-02T15:33:42.784Z,14.40
2018-05-02T15:36:13.756Z,13.90
2018-05-02T15:38:45.336Z,14.90
2018-05-02T15:41:14.527Z,14.90
2018-05-02T15:43:43.474Z,14.90
2018-05-02T15:46:11.630Z,14.90
2018-05-02T15:48:39.892Z,15.30
2018-05-02T15:51:08.178Z,15.10
2018-05-02T15:53:37.326Z,15.30
2018-05-02T15:56:05.577Z,16.00
2018-05-02T15:58:33.665Z,16.90
2018-05-02T16:01:01.895Z,16.90
2018-05-02T16:03:30.436Z,16.60
2018-05-02T16:05:58.625Z,16.90
2018-05-02T16:08:28.221Z,16.90
2018-05-02T16:10:59.182Z,16.40
2018-05-02T16:13:28.143Z,16.90
2018-05-02T16:15:56.408Z,16.40
2018-05-02T16:18:24.572Z,16.90
2018-05-02T16:20:52.911Z,16.80
2018-05-02T16:23:21.849Z,17.60
2018-05-02T16:25:50.136Z,17.60
2018-05-02T16:28:21.640Z,17.20
2018-05-02T16:30:49.824Z,16.80
2018-05-02T16:33:18.007Z,16.60
2018-05-02T16:35:48.887Z,17.00
2018-05-02T16:38:17.500Z,16.80
2018-05-02T16:40:46.268Z,16.80
2018-05-02T16:43:14.409Z,16.50
2018-05-02T16:45:43.492Z,16.90
2018-05-02T16:48:14.041Z,16.90
2018-05-02T16:50:43.359Z,17.00
2018-05-02T16:53:11.572Z,16.30
2018-05-02T16:55:39.720Z,17.50
2018-05-02T16:58:08.690Z,18.30
2018-05-02T17:00:37.676Z,17.90
2018-05-02T17:03:05.827Z,18.30
2018-05-02T17:05:34.023Z,18.60
2018-05-02T17:08:02.261Z,19.20
2018-05-02T17:10:31.585Z,18.90
2018-05-02T17:13:00.229Z,19.60
2018-05-02T17:15:29.193Z,19.20
2018-05-02T17:17:57.366Z,18.70
2018-05-02T17:20:27.528Z,19.60
2018-05-02T17:22:55.727Z,18.50
2018-05-02T17:25:23.911Z,18.90
2018-05-02T17:27:52.081Z,18.80
2018-05-02T17:30:20.262Z,18.80
2018-05-02T17:32:48.569Z,20.10
2018-05-02T17:35:18.829Z,20.20
2018-05-02T17:37:46.995Z,19.90
2018-05-02T17:43:03.670Z,20.40
2018-05-02T17:45:32.973Z,20.60
2018-05-02T17:48:01.215Z,20.60
2018-05-02T17:50:29.569Z,20.90
2018-05-02T17:52:57.730Z,21.10
2018-05-02T17:55:26.004Z,21.20
2018-05-02T17:57:55.399Z,21.00
2018-05-02T18:00:28.011Z,21.30
2018-05-02T18:02:56.346Z,22.70
2018-05-02T18:05:25.555Z,23.50
2018-05-02T18:07:54.798Z,24.60
2018-05-02T18:10:24.056Z,24.10
2018-05-02T18:12:52.918Z,26.10
2018-05-02T18:15:21.060Z,25.80
2018-05-02T18:17:49.220Z,28.00
2018-05-02T18:20:20.409Z,25.70
2018-05-02T18:22:48.962Z,25.20
2018-05-02T18:25:18.442Z,27.30
2018-05-02T18:27:46.591Z,27.20
2018-05-02T18:30:15.369Z,25.70
2018-05-02T18:32:43.622Z,26.90
2018-05-02T18:35:11.784Z,25.50
2018-05-02T18:37:40.008Z,26.00
2018-05-02T18:40:09.293Z,29.60
2018-05-02T18:42:38.444Z,37.60
2018-05-02T18:45:06.595Z,38.50
2018-05-02T18:47:35.568Z,43.90
2018-05-02T18:50:05.645Z,42.60
2018-05-02T18:52:33.852Z,42.60
2018-05-02T18:55:02.014Z,45.60
2018-05-02T18:57:30.187Z,46.30
2018-05-02T18:59:59.366Z,47.30
2018-05-02T19:02:29.852Z,45.40
2018-05-02T19:04:58.858Z,55.50
2018-05-02T19:07:27.172Z,55.50
2018-05-02T19:09:55.343Z,50.20
2018-05-02T19:12:23.962Z,50.20
2018-05-02T19:14:52.137Z,50.60
2018-05-02T19:17:22.562Z,52.20
2018-05-02T19:19:56.561Z,45.60
2018-05-02T19:22:24.900Z,41.50
2018-05-02T19:24:58.744Z,42.00
2018-05-02T19:27:26.941Z,36.10
2018-05-02T19:29:56.091Z,50.40
2018-05-02T19:32:30.440Z,50.50
2018-05-02T19:34:58.596Z,53.60
2018-05-02T19:37:26.832Z,55.00
2018-05-02T19:40:00.769Z,54.70
2018-05-02T19:42:34.553Z,52.00
2018-05-02T19:45:02.721Z,52.60
2018-05-02T19:47:32.425Z,55.40
2018-05-02T19:50:00.720Z,54.60
2018-05-02T19:52:34.482Z,56.20
2018-05-02T19:55:02.671Z,58.00
2018-05-02T19:57:30.861Z,56.30
2018-05-02T19:59:59.173Z,56.70
2018-05-02T20:02:34.198Z,54.60
2018-05-02T20:05:03.049Z,57.90
2018-05-02T20:07:36.813Z,53.40
2018-05-02T20:10:11.427Z,55.50
2018-05-02T20:12:45.156Z,58.10
2018-05-02T20:15:13.378Z,55.00
2018-05-02T20:17:41.526Z,58.30
2018-05-02T20:20:10.608Z,61.30
2018-05-02T20:22:38.775Z,61.30
2018-05-02T20:25:07.642Z,63.60
2018-05-02T20:27:35.797Z,60.70
2018-05-02T20:30:04.960Z,58.70
2018-05-02T20:32:34.356Z,58.20
2018-05-02T20:35:02.604Z,57.80
2018-05-02T20:37:30.754Z,58.80
2018-05-02T20:39:59.005Z,60.70
2018-05-02T20:42:27.309Z,61.50
2018-05-02T20:44:55.458Z,60.00
2018-05-02T20:47:25.036Z,57.50
2018-05-02T20:49:53.190Z,58.20
2018-05-02T20:52:21.447Z,58.70
2018-05-02T20:54:49.701Z,56.60
2018-05-02T20:57:18.338Z,56.50
2018-05-02T20:59:46.656Z,56.60
2018-05-02T21:02:14.818Z,54.30
2018-05-02T21:04:43.735Z,56.40
2018-05-02T21:07:11.896Z,56.40
2018-05-02T21:09:40.224Z,52.90
2018-05-02T21:12:08.409Z,53.00
2018-05-02T21:14:36.692Z,51.90
2018-05-02T21:17:04.796Z,53.90
2018-05-02T21:19:32.948Z,56.90
2018-05-02T21:22:01.860Z,58.80
2018-05-02T21:24:30.022Z,58.80
2018-05-02T21:26:58.940Z,57.90
2018-05-02T21:29:27.111Z,57.90
2018-05-02T21:31:55.249Z,59.30
2018-05-02T21:34:23.452Z,59.90
2018-05-02T21:36:52.227Z,60.20
2018-05-02T21:39:20.491Z,60.00
2018-05-02T21:41:48.677Z,58.40
2018-05-02T21:44:16.912Z,58.40
2018-05-02T21:46:45.111Z,58.30
2018-05-02T21:49:14.020Z,59.40
2018-05-02T21:51:42.264Z,58.80
2018-05-02T21:54:10.453Z,59.70
2018-05-02T21:56:38.617Z,59.90
2018-05-02T21:59:06.778Z,57.70
2018-05-02T22:01:35.000Z,57.90
2018-05-02T22:04:03.184Z,59.70
2018-05-02T22:06:31.375Z,59.70
2018-05-02T22:08:59.556Z,55.20
2018-05-02T22:11:27.727Z,56.60
2018-05-02T22:13:55.894Z,52.80
2018-05-02T22:16:24.094Z,50.80
2018-05-02T22:18:52.278Z,50.70
2018-05-02T22:21:21.028Z,49.60
2018-05-02T22:23:50.238Z,49.30
2018-05-02T22:26:18.388Z,50.60
2018-05-02T22:28:46.590Z,51.70
2018-05-02T22:31:15.759Z,50.20
2018-05-02T22:33:43.926Z,50.30
2018-05-02T22:36:12.078Z,50.70
2018-05-02T22:38:40.329Z,51.50
2018-05-02T22:41:08.885Z,52.70
2018-05-02T22:43:37.043Z,52.60
2018-05-02T22:46:06.116Z,53.80
2018-05-02T22:48:35.202Z,54.00
2018-05-02T22:51:03.392Z,53.50
2018-05-02T22:53:33.987Z,55.60
2018-05-02T22:56:02.621Z,55.10
2018-05-02T22:58:30.787Z,56.10
2018-05-02T23:00:59.844Z,54.20
2018-05-02T23:03:28.392Z,54.20
2018-05-02T23:05:56.584Z,53.60
2018-05-02T23:08:25.443Z,53.30
2018-05-02T23:10:54.685Z,55.50
2018-05-02T23:13:22.860Z,55.50
2018-05-02T23:15:51.044Z,55.60
2018-05-02T23:18:19.225Z,56.50
2018-05-02T23:20:47.441Z,56.30
2018-05-02T23:23:15.622Z,56.40
2018-05-02T23:25:43.778Z,52.00
2018-05-02T23:28:11.947Z,52.70
2018-05-02T23:30:41.977Z,54.30
2018-05-02T23:33:11.067Z,54.30
2018-05-02T23:35:39.223Z,56.20
2018-05-02T23:38:08.900Z,56.50
2018-05-02T23:40:37.125Z,55.90
2018-05-02T23:43:05.280Z,56.10
2018-05-02T23:45:34.276Z,54.10
2018-05-02T23:48:03.229Z,53.60
2018-05-02T23:50:31.594Z,57.40
2018-05-02T23:52:59.751Z,57.40
2018-05-02T23:55:27.893Z,57.40
2018-05-02T23:57:56.833Z,56.40
